Airport View

Enter AWOS ICAO identifier for current METAR.

ex. KFNL

K4A9 250955Z AUTO 00000KT 7SM BR BKN004 OVC009 18/17 A2993 RMK AO2 T01770173

25 Oct 2020 10:03

Frequency: 119.025

Phone: 256-845-5397

Other Area AWOS: K4A6 - K9A5 - KRMG - K8A0

TAF AMD KCHA 250903Z 2509/2606 03004KT 6SM BR OVC009 TEMPO 2509/2512 6SM OVC007 FM251200 02005KT 5SM BR OVC005 FM251500 VRB03KT P6SM BKN008 FM251800 00000KT P6SM SCT018